Terminal Aerodrome Forecast
Issued by NWS Wilmington, OH

Current Version | Previous Version | Graphics & Text | Print | Product List | Glossary On
Versions: 1 2 3 4 5 6 7 8 9 10 11 12 13
000
FTUS41 KILN 242300
TAFCMH
TAF
KCMH 242332Z 2500/2524 23012G20KT P6SM BKN080
     FM250300 24011KT P6SM VCSH OVC040
      TEMPO 2504/2507 BKN025
     FM250900 27007KT P6SM SCT250
     FM251500 VRB03KT P6SM BKN250
     FM252000 03005KT P6SM BKN250=

USA.gov is the U.S. government's official web portal to all federal, state and local government web resources and services.